Terminal Aerodrome Forecast
Issued by NWS Boston, MA

Home | Current Version | Previous Version | Text Only | Print | Product List | Glossary On
Versions: 1 2 3 4 5 6 7 8 9 10 11 12 13 14 15 16
000
FTUS41 KBOX 030540
TAFORH
TAF
KORH 030540Z 0306/0406 00000KT P6SM OVC005
     FM030800 VRB03KT 5SM -RA BR OVC003
     FM031200 VRB03KT 5SM +RA BR OVC003
     FM031600 VRB03KT 5SM BR VCSH OVC015=

USA.gov is the U.S. government's official web portal to all federal, state and local government web resources and services.